Time;durP1;ratioP1;P1;durP2;ratioP2;P2;SDS_P1;SDS_P2;PMS_P1;PMS_P2;Temp;Humidity;BMP_temperature;BMP_pressure;BME280_temperature;BME280_humidity;BME280_pressure;Samples;Min_cycle;Max_cycle;Signal;HPM_P1;HPM_P2
2022/06/23 00:01:01;;;;;;;6.40;4.07;;;16.90;99.90;;;;;;5039881;28;20463;-59
2022/06/23 00:03:33;;;;;;;4.80;4.40;;;16.80;99.90;;;;;;5039372;28;20470;-59
2022/06/23 00:06:08;;;;;;;4.40;4.00;;;16.80;99.90;;;;;;5039545;28;20832;-59
2022/06/23 00:08:45;;;;;;;4.90;4.50;;;16.70;99.90;;;;;;5039666;28;20676;-58
2022/06/23 00:11:22;;;;;;;4.37;4.00;;;16.60;99.90;;;;;;5039521;28;20520;-59
2022/06/23 00:13:50;;;;;;;5.63;5.13;;;16.60;99.90;;;;;;5039664;28;20787;-59
2022/06/23 00:16:26;;;;;;;5.40;4.90;;;16.50;99.90;;;;;;5038009;28;20569;-58
2022/06/23 00:18:54;;;;;;;5.20;4.37;;;16.50;99.90;;;;;;5039696;28;20540;-59
2022/06/23 00:21:24;;;;;;;4.00;3.70;;;16.50;99.90;;;;;;5038954;28;20545;-59
2022/06/23 00:23:57;;;;;;;5.23;4.73;;;16.40;99.90;;;;;;5039471;28;20512;-59
2022/06/23 00:26:27;;;;;;;4.70;4.30;;;16.30;99.90;;;;;;5038888;28;20907;-58
2022/06/23 00:29:00;;;;;;;8.23;4.63;;;16.30;99.90;;;;;;5038643;28;20491;-58
2022/06/23 00:31:34;;;;;;;4.97;4.50;;;16.20;99.90;;;;;;5039449;28;20483;-58
2022/06/23 00:34:06;;;;;;;4.10;3.80;;;16.30;99.90;;;;;;5039129;28;20436;-58
2022/06/23 00:36:38;;;;;;;5.70;4.90;;;16.20;99.90;;;;;;5038854;28;20590;-59
2022/06/23 00:39:20;;;;;;;5.27;4.50;;;16.10;99.90;;;;;;5039428;28;20741;-58
2022/06/23 00:41:49;;;;;;;7.40;4.97;;;16.10;99.90;;;;;;5038876;28;20438;-59
2022/06/23 00:44:30;;;;;;;5.60;3.87;;;16.10;99.90;;;;;;5039118;28;20440;-58
2022/06/23 00:47:02;;;;;;;5.80;4.47;;;16.10;99.90;;;;;;5039013;28;20517;-59
2022/06/23 00:49:35;;;;;;;5.90;4.10;;;16.10;99.90;;;;;;5038687;28;20893;-59
2022/06/23 00:52:15;;;;;;;6.27;4.83;;;16.10;99.90;;;;;;5038591;28;20536;-58
2022/06/23 00:54:48;;;;;;;4.83;4.20;;;16.00;99.90;;;;;;5039096;28;20565;-59
2022/06/23 00:57:27;;;;;;;10.60;5.33;;;15.90;99.90;;;;;;5038428;28;20469;-59
2022/06/23 01:00:01;;;;;;;4.30;3.90;;;15.90;99.90;;;;;;5038352;28;20569;-58
2022/06/23 01:02:37;;;;;;;5.97;4.90;;;15.90;99.90;;;;;;5037629;28;20561;-59
2022/06/23 01:05:12;;;;;;;7.10;5.07;;;15.90;99.90;;;;;;5038634;28;20437;-58
2022/06/23 01:07:52;;;;;;;4.70;3.97;;;15.80;99.90;;;;;;5038638;28;20861;-59
2022/06/23 01:10:27;;;;;;;6.03;4.67;;;15.90;99.90;;;;;;5038802;28;20737;-59
2022/06/23 01:13:02;;;;;;;5.57;5.07;;;15.80;99.90;;;;;;5038394;28;20445;-59
2022/06/23 01:15:37;;;;;;;5.80;4.53;;;15.70;99.90;;;;;;5037988;28;20505;-59
2022/06/23 01:18:13;;;;;;;5.57;5.07;;;15.70;99.90;;;;;;5038039;28;20512;-58
2022/06/23 01:20:52;;;;;;;9.37;4.73;;;15.60;99.90;;;;;;5038296;28;20553;-59
2022/06/23 01:23:50;;;;;;;5.53;5.03;;;15.60;99.90;;;;;;5038227;28;20433;-59
2022/06/23 01:26:58;;;;;;;6.70;5.03;;;15.50;99.90;;;;;;5038020;28;20433;-58
2022/06/23 01:29:32;;;;;;;5.10;4.70;;;15.50;99.90;;;;;;4976994;28;20440;-58
2022/06/23 01:32:09;;;;;;;5.53;4.60;;;15.60;99.90;;;;;;5029636;28;20794;-58
2022/06/23 01:34:49;;;;;;;9.03;4.40;;;15.50;99.90;;;;;;5038038;28;20441;-58
2022/06/23 01:37:24;;;;;;;4.90;4.53;;;15.40;99.90;;;;;;5037350;28;20469;-59
2022/06/23 01:40:00;;;;;;;6.00;5.03;;;15.40;99.90;;;;;;5037545;28;20769;-59
2022/06/23 01:42:38;;;;;;;4.73;4.30;;;15.40;99.90;;;;;;5037936;28;20766;-59
2022/06/23 01:45:19;;;;;;;7.37;4.10;;;15.50;99.90;;;;;;5037979;28;20459;-59
2022/06/23 01:47:52;;;;;;;4.70;4.30;;;15.40;99.90;;;;;;5037216;28;20903;-59
2022/06/23 01:50:33;;;;;;;6.13;4.90;;;15.20;99.90;;;;;;5037620;28;20558;-58
2022/06/23 01:53:12;;;;;;;4.97;4.53;;;15.20;99.90;;;;;;5038083;28;20491;-58
2022/06/23 01:56:11;;;;;;;5.63;4.97;;;15.20;99.90;;;;;;5037344;28;20532;-59
2022/06/23 01:58:49;;;;;;;5.80;5.13;;;15.30;99.90;;;;;;5032761;28;20509;-57
2022/06/23 02:01:21;;;;;;;4.90;4.50;;;15.30;99.90;;;;;;5037606;28;20469;-59
2022/06/23 02:03:56;;;;;;;6.67;4.87;;;15.30;99.90;;;;;;5037169;28;20471;-59
2022/06/23 02:06:30;;;;;;;6.50;4.97;;;15.30;99.90;;;;;;5037502;28;20829;-59
2022/06/23 02:09:05;;;;;;;7.43;4.63;;;15.20;99.90;;;;;;5037775;28;20433;-58
2022/06/23 02:11:42;;;;;;;5.63;5.13;;;15.20;99.90;;;;;;5036968;28;20557;-57
2022/06/23 02:14:20;;;;;;;5.47;4.90;;;15.10;99.90;;;;;;5037594;28;20469;-59
2022/06/23 02:16:54;;;;;;;8.50;5.50;;;15.20;99.90;;;;;;5037124;28;20493;-59
2022/06/23 02:19:31;;;;;;;13.60;5.57;;;15.10;99.90;;;;;;5037087;28;20911;-59
2022/06/23 02:22:07;;;;;;;5.57;4.97;;;15.10;99.90;;;;;;5037187;28;20437;-59
2022/06/23 02:24:40;;;;;;;5.20;4.33;;;15.10;99.90;;;;;;5036799;28;20463;-59
2022/06/23 02:27:13;;;;;;;5.73;5.23;;;15.10;99.90;;;;;;5037359;28;20956;-59
2022/06/23 02:29:49;;;;;;;6.77;6.10;;;15.00;99.90;;;;;;5036914;28;20437;-59
2022/06/23 02:32:23;;;;;;;6.20;5.43;;;15.10;99.90;;;;;;5037296;28;20575;-58
2022/06/23 02:35:33;;;;;;;6.20;5.30;;;15.10;99.90;;;;;;5036995;28;20445;-59
2022/06/23 02:38:08;;;;;;;5.53;4.80;;;15.00;99.90;;;;;;5037083;28;20462;-59
2022/06/23 02:40:41;;;;;;;5.20;4.80;;;14.90;99.90;;;;;;5037466;28;20507;-58
2022/06/23 02:43:20;;;;;;;5.83;4.83;;;14.90;99.90;;;;;;5036842;28;20532;-59
2022/06/23 02:46:27;;;;;;;6.30;5.30;;;14.90;99.90;;;;;;5037004;28;20484;-59
2022/06/23 02:49:19;;;;;;;6.47;4.90;;;14.90;99.90;;;;;;4976002;28;20435;-59
2022/06/23 02:52:15;;;;;;;6.90;6.37;;;14.80;99.90;;;;;;5040908;28;20918;-57
2022/06/23 02:55:02;;;;;;;5.40;4.90;;;14.80;99.90;;;;;;5041355;28;20952;-58
2022/06/23 02:57:42;;;;;;;6.90;5.47;;;14.90;99.90;;;;;;5040789;28;20556;-58
2022/06/23 03:00:18;;;;;;;6.30;5.50;;;14.80;99.90;;;;;;5040747;28;20549;-58
2022/06/23 03:03:02;;;;;;;6.10;5.50;;;14.80;99.90;;;;;;5040918;28;20445;-58
2022/06/23 03:05:41;;;;;;;6.10;5.50;;;14.80;99.90;;;;;;5040281;28;20561;-58
2022/06/23 03:08:17;;;;;;;7.90;7.10;;;14.60;99.90;;;;;;5040708;28;20838;-59
2022/06/23 03:10:51;;;;;;;9.27;6.20;;;14.60;99.90;;;;;;5040843;28;20750;-58
2022/06/23 03:13:25;;;;;;;6.13;5.63;;;14.60;99.90;;;;;;5040475;28;20463;-59
2022/06/23 03:15:56;;;;;;;6.30;5.70;;;14.60;99.90;;;;;;5040234;28;20561;-58
2022/06/23 03:18:29;;;;;;;6.77;5.93;;;14.60;99.90;;;;;;5020766;28;20849;-59
2022/06/23 03:21:04;;;;;;;6.13;5.53;;;14.60;99.90;;;;;;5020890;28;20791;-59
2022/06/23 03:23:42;;;;;;;7.00;5.70;;;14.70;99.90;;;;;;5020488;28;20537;-58
2022/06/23 03:26:25;;;;;;;6.37;5.80;;;14.70;99.90;;;;;;5020789;28;20506;-59
2022/06/23 03:28:57;;;;;;;6.73;6.13;;;14.70;99.90;;;;;;5020948;28;20498;-59
2022/06/23 03:31:30;;;;;;;8.47;6.27;;;14.70;99.90;;;;;;5020627;28;20517;-58
2022/06/23 03:34:04;;;;;;;7.27;6.50;;;14.70;99.90;;;;;;5020886;28;20502;-58
2022/06/23 03:36:36;;;;;;;6.97;6.33;;;14.70;99.90;;;;;;5020797;28;20563;-59
2022/06/23 03:42:08;;;;;;;6.13;5.63;;;14.70;99.90;;;;;;5019994;28;20440;-58
2022/06/23 03:44:42;;;;;;;8.23;6.70;;;14.70;99.90;;;;;;5020495;28;20496;-59
2022/06/23 03:47:20;;;;;;;6.30;5.70;;;14.70;99.90;;;;;;5020242;28;20470;-57
2022/06/23 03:49:52;;;;;;;8.33;5.30;;;14.80;99.90;;;;;;5019844;28;20908;-58
2022/06/23 03:52:34;;;;;;;6.07;5.43;;;14.90;99.90;;;;;;5020170;28;20892;-58
2022/06/23 03:55:10;;;;;;;6.17;5.67;;;14.90;99.90;;;;;;5020285;28;20446;-59
2022/06/23 03:57:43;;;;;;;6.53;5.80;;;15.00;99.90;;;;;;5019952;28;20492;-58
2022/06/23 04:00:22;;;;;;;5.73;5.20;;;15.00;99.90;;;;;;5020062;28;20439;-57
2022/06/23 04:02:54;;;;;;;9.73;5.30;;;15.10;99.90;;;;;;5019585;28;20496;-58
2022/06/23 04:05:27;;;;;;;5.93;5.00;;;15.20;99.90;;;;;;5019426;28;20438;-59
2022/06/23 04:08:02;;;;;;;8.30;5.77;;;15.30;99.90;;;;;;5019795;28;20491;-59
2022/06/23 04:10:32;;;;;;;5.30;4.80;;;15.40;99.90;;;;;;5019850;28;20488;-59
2022/06/23 04:13:10;;;;;;;4.87;4.37;;;15.50;99.90;;;;;;5020146;28;20542;-59
2022/06/23 04:15:44;;;;;;;5.43;4.80;;;15.70;99.90;;;;;;5019633;28;20731;-59
2022/06/23 04:18:23;;;;;;;7.40;4.40;;;15.90;99.90;;;;;;5038300;28;20473;-58
2022/06/23 04:20:54;;;;;;;5.77;4.30;;;16.00;99.90;;;;;;5040177;28;20857;-59
2022/06/23 04:23:28;;;;;;;5.50;4.43;;;16.00;99.90;;;;;;5039571;28;20441;-58
2022/06/23 04:26:02;;;;;;;6.13;4.50;;;16.10;99.90;;;;;;5039088;28;20477;-59
2022/06/23 04:28:37;;;;;;;5.20;4.70;;;16.20;99.90;;;;;;5040571;28;20460;-59
2022/06/23 04:31:17;;;;;;;4.90;4.30;;;16.20;99.90;;;;;;5039436;28;20462;-59
2022/06/23 04:33:48;;;;;;;5.93;4.27;;;16.30;99.90;;;;;;5039158;28;20488;-59
2022/06/23 04:36:23;;;;;;;4.60;4.20;;;16.30;99.90;;;;;;5038163;28;20442;-58
2022/06/23 04:38:57;;;;;;;5.63;4.70;;;16.40;99.90;;;;;;5039306;28;20461;-59
2022/06/23 04:41:29;;;;;;;5.33;4.77;;;16.50;99.90;;;;;;5039037;28;20911;-58
2022/06/23 04:44:00;;;;;;;7.37;4.90;;;16.60;99.90;;;;;;5039033;28;20448;-60
2022/06/23 04:46:33;;;;;;;4.87;4.43;;;16.70;99.90;;;;;;5038743;28;20562;-57
2022/06/23 04:49:04;;;;;;;5.50;4.10;;;16.80;99.90;;;;;;5038614;28;20533;-59
2022/06/23 04:51:35;;;;;;;4.50;3.97;;;17.00;99.90;;;;;;5037858;28;20467;-59
2022/06/23 04:54:12;;;;;;;4.63;3.50;;;17.10;99.90;;;;;;5038585;28;20444;-59
2022/06/23 04:56:46;;;;;;;5.03;4.63;;;17.20;99.90;;;;;;5041534;28;20942;-59
2022/06/23 04:59:28;;;;;;;7.07;4.30;;;17.30;99.90;;;;;;5064905;28;20500;-60
2022/06/23 05:02:00;;;;;;;5.00;4.37;;;17.40;99.90;;;;;;5066584;28;20463;-60
2022/06/23 05:04:45;;;;;;;5.93;4.77;;;17.50;99.90;;;;;;5064568;28;20460;-59
2022/06/23 05:07:24;;;;;;;4.70;4.20;;;17.60;99.90;;;;;;5063953;28;20537;-59
2022/06/23 05:09:58;;;;;;;5.80;4.07;;;17.80;99.90;;;;;;5059762;28;20458;-59
2022/06/23 05:12:29;;;;;;;4.43;3.93;;;17.90;99.90;;;;;;5057184;28;20897;-59
2022/06/23 05:15:03;;;;;;;5.00;4.37;;;18.10;99.90;;;;;;5055346;28;20470;-59
2022/06/23 05:17:35;;;;;;;4.97;4.57;;;18.10;99.90;;;;;;5057570;28;20471;-59
2022/06/23 05:20:07;;;;;;;4.30;4.00;;;18.30;99.90;;;;;;5058001;28;20524;-59
2022/06/23 05:22:41;;;;;;;6.83;4.83;;;18.50;99.90;;;;;;5056765;28;20437;-59
2022/06/23 05:25:28;;;;;;;6.00;3.90;;;18.60;99.90;;;;;;5057961;28;21001;-59
2022/06/23 05:27:56;;;;;;;6.67;4.13;;;18.70;99.90;;;;;;5058154;28;20462;-59
2022/06/23 05:30:29;;;;;;;6.50;4.60;;;18.80;99.90;;;;;;5056808;28;20821;-60
2022/06/23 05:33:06;;;;;;;4.07;3.70;;;19.00;99.90;;;;;;5056564;28;20806;-59
2022/06/23 05:35:38;;;;;;;5.40;3.80;;;19.10;99.90;;;;;;5055620;28;20462;-60
2022/06/23 05:38:09;;;;;;;4.53;4.13;;;19.30;99.90;;;;;;5057010;28;20767;-60
2022/06/23 05:40:43;;;;;;;6.47;4.10;;;19.50;99.90;;;;;;5055871;28;20429;-59
2022/06/23 05:43:14;;;;;;;4.07;3.73;;;19.70;99.90;;;;;;5053829;28;20482;-60
2022/06/23 05:45:45;;;;;;;6.30;3.67;;;20.10;99.90;;;;;;5056270;28;20755;-59
2022/06/23 05:48:21;;;;;;;5.20;4.33;;;20.40;99.90;;;;;;5055592;28;20458;-60
2022/06/23 05:50:53;;;;;;;5.50;4.07;;;20.80;99.90;;;;;;5057999;28;20540;-60
2022/06/23 05:53:30;;;;;;;4.23;3.87;;;21.10;99.90;;;;;;5057719;28;20437;-60
2022/06/23 05:56:04;;;;;;;5.33;3.90;;;21.50;99.90;;;;;;5057471;28;20459;-59
2022/06/23 05:58:41;;;;;;;3.97;3.63;;;21.90;99.90;;;;;;5060533;28;20492;-59
2022/06/23 06:01:17;;;;;;;4.53;4.13;;;22.20;99.90;;;;;;5061662;28;20855;-60
2022/06/23 06:03:55;;;;;;;5.70;3.73;;;22.40;99.90;;;;;;5066578;28;20489;-60
2022/06/23 06:06:23;;;;;;;6.13;3.90;;;22.80;99.90;;;;;;5066877;28;20852;-61
2022/06/23 06:11:42;;;;;;;4.90;4.03;;;23.40;99.90;;;;;;5065802;28;20504;-60
2022/06/23 06:14:14;;;;;;;6.10;3.87;;;23.70;99.90;;;;;;5062988;28;20548;-60
2022/06/23 06:16:44;;;;;;;4.30;4.00;;;23.90;99.90;;;;;;5066407;28;20448;-61
2022/06/23 06:19:14;;;;;;;7.23;3.87;;;24.40;99.90;;;;;;5065132;28;20465;-61
2022/06/23 06:21:45;;;;;;;4.53;4.13;;;24.60;99.90;;;;;;5064499;28;20421;-61
2022/06/23 06:24:20;;;;;;;4.37;3.97;;;24.80;99.90;;;;;;5064527;28;20435;-61
2022/06/23 06:26:55;;;;;;;4.23;3.77;;;24.90;99.90;;;;;;5062882;28;20478;-60
2022/06/23 06:29:26;;;;;;;4.93;4.40;;;25.00;99.90;;;;;;5064704;28;20781;-60
2022/06/23 06:31:58;;;;;;;4.63;4.23;;;25.30;99.90;;;;;;5065365;28;20876;-60
2022/06/23 06:34:33;;;;;;;4.63;4.10;;;25.40;99.90;;;;;;5062256;28;20802;-60
2022/06/23 06:37:01;;;;;;;4.37;3.30;;;25.60;99.90;;;;;;5064922;28;20449;-60
2022/06/23 06:39:38;;;;;;;5.00;3.70;;;25.60;99.90;;;;;;5066014;28;20492;-60
2022/06/23 06:42:10;;;;;;;5.37;4.50;;;25.70;99.90;;;;;;5065342;28;20432;-61
2022/06/23 06:44:43;;;;;;;4.17;3.77;;;25.90;99.90;;;;;;5064163;28;20464;-61
2022/06/23 06:47:27;;;;;;;4.33;3.90;;;26.20;99.90;;;;;;5062588;28;20468;-61
2022/06/23 06:49:56;;;;;;;5.27;3.50;;;26.30;99.90;;;;;;5061704;28;20767;-61
2022/06/23 06:52:25;;;;;;;4.70;4.17;;;26.30;99.90;;;;;;5056744;28;20480;-61
2022/06/23 06:54:59;;;;;;;5.00;4.50;;;26.20;99.90;;;;;;5056115;28;20931;-61
2022/06/23 06:57:34;;;;;;;5.67;4.80;;;26.20;99.90;;;;;;5056581;28;20542;-60
2022/06/23 07:00:07;;;;;;;5.67;4.70;;;25.90;99.90;;;;;;5056676;28;20464;-59
2022/06/23 07:02:39;;;;;;;4.73;4.23;;;26.10;99.90;;;;;;5057326;28;20902;-59
2022/06/23 07:05:18;;;;;;;5.17;4.77;;;26.30;99.90;;;;;;5057132;28;20747;-60
2022/06/23 07:07:53;;;;;;;5.10;4.50;;;26.40;99.90;;;;;;5055980;28;20441;-61
2022/06/23 07:10:27;;;;;;;4.43;4.00;;;26.60;99.90;;;;;;5056538;28;20461;-60
2022/06/23 07:13:13;;;;;;;7.50;4.87;;;26.90;99.90;;;;;;5056384;28;20519;-60
2022/06/23 07:15:46;;;;;;;5.30;4.80;;;27.20;99.90;;;;;;5057180;28;20462;-60
2022/06/23 07:18:19;;;;;;;6.37;4.43;;;27.40;99.90;;;;;;5068184;28;20957;-60
2022/06/23 07:21:01;;;;;;;5.70;4.77;;;27.50;99.90;;;;;;5076509;28;20872;-59
2022/06/23 07:23:47;;;;;;;6.80;5.60;;;27.80;99.90;;;;;;5077026;28;20516;-60
2022/06/23 07:26:36;;;;;;;7.00;4.40;;;28.00;99.90;;;;;;5067884;28;20561;-60
2022/06/23 07:29:20;;;;;;;7.30;4.83;;;28.30;99.90;;;;;;5057224;28;20842;-60
2022/06/23 07:32:04;;;;;;;7.20;4.90;;;28.60;99.90;;;;;;5056597;28;20465;-60
2022/06/23 07:34:38;;;;;;;9.23;5.07;;;28.70;99.90;;;;;;5054609;28;20607;-61
2022/06/23 07:37:25;;;;;;;5.37;4.70;;;28.70;99.90;;;;;;5058899;28;20454;-59
2022/06/23 07:40:01;;;;;;;5.63;4.80;;;28.60;99.90;;;;;;5059984;28;20566;-60
2022/06/23 07:42:45;;;;;;;5.20;4.67;;;29.00;99.90;;;;;;5058624;28;20806;-61
2022/06/23 07:45:19;;;;;;;5.23;4.73;;;29.30;99.90;;;;;;5060295;28;20436;-61
2022/06/23 07:47:47;;;;;;;8.23;4.90;;;29.30;99.90;;;;;;5059556;28;20467;-61
2022/06/23 07:50:14;;;;;;;6.10;4.23;;;29.30;99.90;;;;;;5060078;28;20462;-60
2022/06/23 07:52:43;;;;;;;5.30;4.20;;;29.30;99.90;;;;;;5059275;28;20461;-60
2022/06/23 07:55:20;;;;;;;5.50;4.73;;;29.30;99.90;;;;;;5058243;28;20553;-60
2022/06/23 07:57:47;;;;;;;5.87;5.37;;;29.10;99.90;;;;;;5058984;28;20531;-61
2022/06/23 08:00:21;;;;;;;5.50;4.97;;;29.20;99.90;;;;;;5059197;28;20475;-61
2022/06/23 08:03:00;;;;;;;6.07;5.47;;;29.40;99.90;;;;;;5059829;28;20466;-61
2022/06/23 08:05:33;;;;;;;5.97;4.97;;;29.20;99.90;;;;;;5059621;28;20961;-61
2022/06/23 08:08:05;;;;;;;5.00;4.53;;;29.30;99.90;;;;;;5059820;28;20462;-61
2022/06/23 08:10:34;;;;;;;5.50;5.10;;;29.10;99.90;;;;;;5059121;28;20978;-61
2022/06/23 08:13:07;;;;;;;5.10;4.80;;;28.90;99.90;;;;;;5059736;28;20474;-61
2022/06/23 08:18:32;;;;;;;7.17;5.03;;;29.40;99.90;;;;;;5060949;28;20467;-61
2022/06/23 08:21:06;;;;;;;5.47;4.93;;;29.30;99.90;;;;;;5059958;28;20461;-61
2022/06/23 08:23:39;;;;;;;6.57;4.53;;;29.70;99.90;;;;;;5059237;28;20432;-61
2022/06/23 08:26:12;;;;;;;5.77;5.00;;;29.90;99.90;;;;;;5059336;28;20537;-61
2022/06/23 08:28:41;;;;;;;7.03;5.40;;;30.10;99.90;;;;;;5058506;28;20470;-61
2022/06/23 08:31:12;;;;;;;5.17;4.77;;;30.00;99.90;;;;;;5058511;28;20920;-61
2022/06/23 08:33:41;;;;;;;5.00;4.50;;;29.90;99.90;;;;;;5059562;28;20561;-61
2022/06/23 08:36:12;;;;;;;5.37;4.97;;;30.10;99.90;;;;;;5044545;28;20971;-61
2022/06/23 08:38:56;;;;;;;5.30;4.47;;;30.40;99.90;;;;;;5057982;28;20469;-61
2022/06/23 08:41:34;;;;;;;7.07;5.20;;;30.60;99.90;;;;;;5058153;28;20470;-61
2022/06/23 08:44:07;;;;;;;5.70;4.40;;;30.80;99.90;;;;;;5059005;28;20732;-61
2022/06/23 08:46:43;;;;;;;5.23;4.80;;;31.00;99.90;;;;;;5058816;28;20473;-61
2022/06/23 08:49:16;;;;;;;5.30;4.90;;;31.30;99.90;;;;;;5058411;28;20439;-62
2022/06/23 08:51:53;;;;;;;5.77;5.27;;;31.50;99.90;;;;;;5058573;28;20557;-61
2022/06/23 08:54:26;;;;;;;5.60;4.53;;;31.60;99.90;;;;;;5058440;28;20458;-62
2022/06/23 08:56:59;;;;;;;8.03;5.33;;;31.30;99.90;;;;;;5058911;28;20523;-61
2022/06/23 08:59:36;;;;;;;7.03;5.13;;;31.20;99.90;;;;;;5058557;28;20917;-62
2022/06/23 09:02:14;;;;;;;5.63;4.20;;;31.30;99.90;;;;;;5058569;28;20553;-61
2022/06/23 09:04:49;;;;;;;5.77;4.87;;;31.10;99.90;;;;;;5058603;28;20440;-62
2022/06/23 09:07:30;;;;;;;6.20;5.30;;;31.30;99.90;;;;;;5058082;28;20462;-61
2022/06/23 09:10:06;;;;;;;6.37;5.10;;;31.80;99.90;;;;;;5058091;28;20743;-62
2022/06/23 09:12:43;;;;;;;5.20;4.80;;;31.80;99.90;;;;;;5058303;28;20489;-62
2022/06/23 09:15:42;;;;;;;5.10;4.70;;;32.00;99.90;;;;;;5058343;28;20519;-61
2022/06/23 09:19:04;;;;;;;5.43;4.93;;;32.20;99.90;;;;;;5051665;28;20589;-62
2022/06/23 09:21:51;;;;;;;8.13;5.00;;;32.00;99.90;;;;;;5013883;28;20918;-61
2022/06/23 09:24:46;;;;;;;5.30;4.80;;;32.10;99.90;;;;;;5058251;28;20972;-62
2022/06/23 09:27:22;;;;;;;5.30;4.10;;;32.00;99.90;;;;;;5053694;28;20545;-61
2022/06/23 09:29:59;;;;;;;5.47;4.93;;;32.30;99.90;;;;;;5058307;28;20533;-62
2022/06/23 09:32:45;;;;;;;5.30;4.80;;;32.50;99.90;;;;;;5053607;28;21076;-61
2022/06/23 09:35:36;;;;;;;5.70;4.60;;;32.30;99.90;;;;;;5056755;28;20553;-61
2022/06/23 09:38:21;;;;;;;5.80;4.20;;;32.50;99.90;;;;;;5056892;28;20458;-61
2022/06/23 09:40:59;;;;;;;4.20;3.80;;;33.10;99.90;;;;;;5057790;28;20489;-62
2022/06/23 09:44:09;;;;;;;5.40;4.93;;;32.90;99.90;;;;;;5061884;28;20723;-62
2022/06/23 09:46:53;;;;;;;4.90;4.60;;;32.60;99.90;;;;;;5065007;28;20494;-62
2022/06/23 09:49:34;;;;;;;5.37;4.40;;;32.60;99.90;;;;;;5060797;28;20428;-62
2022/06/23 09:52:19;;;;;;;7.73;3.63;;;32.80;99.90;;;;;;5057212;28;20479;-62
2022/06/23 09:55:18;;;;;;;6.83;5.70;;;32.90;99.90;;;;;;5056164;28;20466;-62
2022/06/23 09:58:19;;;;;;;5.77;5.27;;;33.10;99.90;;;;;;5056540;28;20462;-62
2022/06/23 10:00:56;;;;;;;5.10;4.70;;;32.80;99.90;;;;;;5024326;28;20469;-62
2022/06/23 10:03:44;;;;;;;7.43;4.60;;;33.10;99.90;;;;;;5036003;28;20487;-62
2022/06/23 10:06:38;;;;;;;5.40;4.90;;;33.60;99.90;;;;;;5036710;28;20748;-62
2022/06/23 10:09:18;;;;;;;5.13;4.70;;;33.80;99.90;;;;;;5037618;28;20433;-62
2022/06/23 10:12:03;;;;;;;5.90;4.60;;;34.30;99.90;;;;;;5037144;28;20560;-63
2022/06/23 10:15:02;;;;;;;5.77;5.37;;;34.50;99.90;;;;;;5037728;28;20441;-62
2022/06/23 10:17:55;;;;;;;4.87;4.47;;;34.30;99.90;;;;;;5036662;28;20854;-62
2022/06/23 10:20:42;;;;;;;5.70;5.07;;;34.40;99.90;;;;;;5036499;28;20486;-62
2022/06/23 10:23:48;;;;;;;5.20;4.53;;;34.10;99.90;;;;;;5036953;28;20879;-62
2022/06/23 10:26:38;;;;;;;4.80;4.40;;;33.20;99.90;;;;;;5055258;28;20521;-63
2022/06/23 10:29:20;;;;;;;4.50;4.13;;;33.40;99.90;;;;;;5055785;28;20564;-62
2022/06/23 10:32:10;;;;;;;5.33;4.83;;;33.00;99.90;;;;;;5056080;28;20531;-62
2022/06/23 10:34:57;;;;;;;5.90;4.90;;;33.00;99.90;;;;;;5056500;28;20550;-62
2022/06/23 10:37:37;;;;;;;4.93;4.50;;;33.20;99.90;;;;;;5056217;28;20462;-62
2022/06/23 10:40:41;;;;;;;5.47;4.97;;;33.40;99.90;;;;;;5056402;28;20493;-62
2022/06/23 10:43:36;;;;;;;5.33;4.83;;;33.70;99.90;;;;;;5040340;28;20549;-62
2022/06/23 10:46:14;;;;;;;7.47;4.77;;;33.70;99.90;;;;;;5042316;28;20479;-62
2022/06/23 10:49:15;;;;;;;5.43;4.93;;;33.50;99.90;;;;;;5035207;28;20884;-62
2022/06/23 10:52:01;;;;;;;5.97;4.80;;;33.80;99.90;;;;;;5033447;28;20449;-62
2022/06/23 10:54:55;;;;;;;4.77;4.43;;;34.20;99.90;;;;;;5035001;28;20443;-62
2022/06/23 10:57:45;;;;;;;5.40;5.00;;;34.00;99.90;;;;;;5020378;28;20472;-63
2022/06/23 11:00:18;;;;;;;4.90;4.60;;;33.80;99.90;;;;;;5037263;28;20780;-62
2022/06/23 11:03:24;;;;;;;5.37;4.60;;;33.70;99.90;;;;;;5036957;28;20470;-62
2022/06/23 11:06:20;;;;;;;7.00;4.77;;;33.80;99.90;;;;;;5039689;28;20437;-62
2022/06/23 11:09:12;;;;;;;5.03;3.90;;;34.10;99.90;;;;;;5055956;28;20798;-62
2022/06/23 11:11:55;;;;;;;4.70;4.40;;;34.50;99.90;;;;;;5059248;28;20916;-63
2022/06/23 11:14:41;;;;;;;4.40;4.00;;;35.10;99.90;;;;;;5064319;28;20469;-63
2022/06/23 11:17:22;;;;;;;4.97;4.47;;;35.10;99.90;;;;;;5068830;28;20798;-62
2022/06/23 11:20:12;;;;;;;5.00;4.53;;;34.30;99.90;;;;;;5059912;28;20555;-63
2022/06/23 11:22:52;;;;;;;5.23;4.80;;;34.30;99.90;;;;;;5057369;28;20740;-63
2022/06/23 11:25:42;;;;;;;4.97;4.67;;;34.10;99.90;;;;;;5059816;28;20492;-63
2022/06/23 11:28:21;;;;;;;8.23;5.23;;;33.50;99.90;;;;;;5065554;28;20538;-62
2022/06/23 11:31:06;;;;;;;4.83;4.53;;;34.10;99.90;;;;;;5080479;28;20440;-62
2022/06/23 11:33:52;;;;;;;5.30;4.80;;;34.40;99.90;;;;;;5080561;28;20496;-62
2022/06/23 11:36:36;;;;;;;5.20;3.80;;;34.50;99.90;;;;;;5080428;28;20464;-62
2022/06/23 11:39:25;;;;;;;4.87;4.30;;;34.50;99.90;;;;;;5080770;28;20427;-62
2022/06/23 11:42:11;;;;;;;6.13;4.50;;;34.70;99.90;;;;;;5072834;28;20764;-64
2022/06/23 11:44:52;;;;;;;5.07;4.67;;;34.90;99.90;;;;;;5069618;28;20430;-63
2022/06/23 11:47:30;;;;;;;5.30;4.83;;;34.70;99.90;;;;;;5068462;28;20486;-62
2022/06/23 11:50:14;;;;;;;4.93;4.53;;;34.90;99.90;;;;;;5059261;28;20432;-63
2022/06/23 11:53:06;;;;;;;5.33;4.83;;;35.20;99.90;;;;;;5059898;28;20483;-62
2022/06/23 11:55:39;;;;;;;5.37;4.87;;;35.80;99.90;;;;;;5060022;28;20458;-62
2022/06/23 11:58:22;;;;;;;4.60;4.20;;;35.60;99.90;;;;;;5059754;28;20926;-62
2022/06/23 12:01:14;;;;;;;5.83;4.70;;;34.80;99.90;;;;;;5045718;28;20494;-61
2022/06/23 12:04:13;;;;;;;4.20;3.90;;;34.80;99.90;;;;;;5039818;28;20473;-63
2022/06/23 12:06:59;;;;;;;6.33;4.10;;;35.20;99.90;;;;;;5014451;28;20549;-62
2022/06/23 12:09:41;;;;;;;5.43;4.93;;;35.30;99.90;;;;;;5039350;28;20441;-62
2022/06/23 12:12:11;;;;;;;5.57;5.20;;;34.70;99.90;;;;;;5039762;28;20443;-62
2022/06/23 12:14:43;;;;;;;4.47;4.17;;;34.80;99.90;;;;;;5039841;28;20441;-62
2022/06/23 12:17:14;;;;;;;8.20;4.80;;;34.90;99.90;;;;;;5039317;28;20941;-62
2022/06/23 12:19:47;;;;;;;6.03;4.97;;;35.40;99.90;;;;;;5045466;28;20427;-63
2022/06/23 12:22:23;;;;;;;6.10;4.70;;;36.00;99.90;;;;;;5076642;28;20445;-62
2022/06/23 12:25:02;;;;;;;5.20;4.80;;;36.50;99.90;;;;;;5061600;28;20913;-62
2022/06/23 12:27:35;;;;;;;5.30;4.90;;;36.10;99.90;;;;;;5058764;28;20432;-62
2022/06/23 12:30:09;;;;;;;5.30;4.47;;;35.80;99.90;;;;;;5058971;28;20491;-62
2022/06/23 12:32:45;;;;;;;5.90;4.33;;;35.70;99.90;;;;;;5059988;28;20538;-62
2022/06/23 12:35:20;;;;;;;5.03;4.60;;;35.40;99.90;;;;;;5058908;28;20514;-62
2022/06/23 12:37:55;;;;;;;5.50;5.10;;;35.60;99.90;;;;;;5058781;28;20562;-62
2022/06/23 12:40:29;;;;;;;5.70;5.10;;;35.60;99.90;;;;;;5072212;28;20496;-63
2022/06/23 12:43:02;;;;;;;6.07;5.47;;;35.70;99.90;;;;;;5073941;28;20470;-62
2022/06/23 12:45:58;;;;;;;5.00;4.60;;;35.90;99.90;;;;;;5069876;28;20427;-62
2022/06/23 12:48:58;;;;;;;6.97;5.00;;;35.30;99.90;;;;;;5076012;28;20558;-63
2022/06/23 12:51:38;;;;;;;4.87;4.47;;;35.40;99.90;;;;;;5075612;28;20514;-62
2022/06/23 12:54:24;;;;;;;7.40;4.60;;;35.80;99.90;;;;;;5075459;28;20466;-63
2022/06/23 12:57:17;;;;;;;4.77;4.30;;;36.00;99.90;;;;;;5078118;28;20456;-63
2022/06/23 12:59:50;;;;;;;4.87;4.57;;;36.20;99.90;;;;;;5054068;28;20440;-63
2022/06/23 13:02:29;;;;;;;5.90;5.33;;;36.10;99.90;;;;;;5055137;28;20504;-63
2022/06/23 13:05:09;;;;;;;5.43;4.93;;;36.00;99.90;;;;;;5060690;28;20465;-63
2022/06/23 13:07:44;;;;;;;4.33;3.93;;;36.40;99.90;;;;;;5075411;28;20807;-63
2022/06/23 13:10:22;;;;;;;5.00;4.70;;;36.50;99.90;;;;;;5057815;28;20568;-62
2022/06/23 13:13:11;;;;;;;6.10;5.67;;;36.30;99.90;;;;;;5058717;28;20464;-63
2022/06/23 13:15:50;;;;;;;5.67;5.20;;;36.40;99.90;;;;;;5058723;28;20436;-62
2022/06/23 13:18:25;;;;;;;5.30;4.90;;;36.60;99.90;;;;;;5058393;28;20551;-63
2022/06/23 13:21:00;;;;;;;4.97;4.57;;;35.80;99.90;;;;;;5058473;28;20467;-63
2022/06/23 13:23:36;;;;;;;4.93;4.53;;;35.60;99.90;;;;;;5061712;28;20455;-63
2022/06/23 13:26:14;;;;;;;5.73;4.30;;;35.70;99.90;;;;;;5055605;28;20793;-63
2022/06/23 13:28:47;;;;;;;4.93;4.57;;;35.70;99.90;;;;;;5065508;28;20635;-62
2022/06/23 13:31:25;;;;;;;5.00;4.50;;;35.60;99.90;;;;;;5070937;28;20449;-62
2022/06/23 13:34:00;;;;;;;5.30;5.00;;;35.10;99.90;;;;;;5066160;28;20463;-62
2022/06/23 13:36:48;;;;;;;5.33;4.70;;;34.90;99.90;;;;;;5060748;28;20453;-62
2022/06/23 13:39:27;;;;;;;5.17;4.70;;;34.90;99.90;;;;;;5065910;28;20887;-62
2022/06/23 13:42:04;;;;;;;5.27;4.77;;;35.30;99.90;;;;;;5061289;28;20488;-60
2022/06/23 13:44:39;;;;;;;5.77;5.23;;;35.30;99.90;;;;;;5067894;28;20496;-61
2022/06/23 13:47:11;;;;;;;5.40;5.00;;;35.10;99.90;;;;;;5075314;28;20456;-62
2022/06/23 13:49:48;;;;;;;6.60;5.20;;;35.20;99.90;;;;;;5067009;28;20848;-63
2022/06/23 13:52:24;;;;;;;5.27;4.87;;;35.10;99.90;;;;;;5067633;28;20882;-63
2022/06/23 13:54:58;;;;;;;4.53;4.10;;;35.30;99.90;;;;;;5061987;28;20808;-63